createdAt,value
2023-04-23T00:13:20.231Z,8.30
2023-04-23T00:28:22.260Z,8.10
2023-04-23T00:43:22.682Z,7.00
2023-04-23T00:58:22.854Z,8.00
2023-04-23T01:13:23.206Z,7.50
2023-04-23T01:28:23.328Z,7.60
2023-04-23T01:43:23.636Z,7.80
2023-04-23T01:58:23.855Z,8.40
2023-04-23T02:13:24.232Z,8.10
2023-04-23T02:28:25.568Z,7.60
2023-04-23T02:43:26.639Z,7.80
2023-04-23T02:58:26.978Z,7.60
2023-04-23T03:13:27.036Z,7.00
2023-04-23T03:28:27.414Z,7.80
2023-04-23T03:43:27.291Z,7.60
2023-04-23T03:58:27.361Z,12.80
2023-04-23T04:13:27.681Z,467.20
2023-04-23T04:28:27.745Z,912.00
2023-04-23T04:43:28.189Z,872.60
2023-04-23T04:58:28.213Z,251.20
2023-04-23T05:13:28.605Z,592.60
2023-04-23T05:28:29.003Z,338.30
2023-04-23T05:43:29.044Z,370.10
2023-04-23T05:58:29.390Z,709.10
2023-04-23T06:13:29.564Z,810.10
2023-04-23T06:28:29.976Z,188.80
2023-04-23T06:43:30.001Z,796.20
2023-04-23T06:58:30.214Z,119.80
2023-04-23T07:13:30.554Z,183.30
2023-04-23T07:28:30.969Z,202.40
2023-04-23T07:43:30.938Z,175.40
2023-04-23T07:58:31.329Z,349.90
2023-04-23T08:13:31.358Z,222.60
2023-04-23T08:28:31.670Z,319.40
2023-04-23T08:43:31.886Z,608.40
2023-04-23T08:58:32.666Z,491.60
2023-04-23T09:13:33.208Z,692.60
2023-04-23T09:28:34.366Z,97.40
2023-04-23T09:43:34.690Z,98.20
2023-04-23T09:58:34.864Z,98.80
2023-04-23T10:13:35.005Z,9.10
2023-04-23T10:28:35.168Z,119.80
2023-04-23T10:43:35.398Z,14.10
2023-04-23T10:58:35.570Z,98.70
2023-04-23T11:13:35.768Z,285.70
2023-04-23T11:28:36.152Z,86.80
2023-04-23T11:43:36.051Z,102.50
2023-04-23T11:58:38.413Z,150.20
2023-04-23T12:13:39.314Z,10.20
2023-04-23T12:28:39.878Z,9.70
2023-04-23T12:43:40.070Z,6.30
2023-04-23T12:58:40.254Z,5.90
2023-04-23T13:13:40.475Z,8.80
2023-04-23T13:28:40.608Z,2.90
2023-04-23T13:43:40.634Z,6.70
2023-04-23T13:58:40.737Z,1.70
2023-04-23T14:13:40.759Z,1.50
2023-04-23T14:28:40.954Z,1.90
2023-04-23T14:43:40.945Z,1.70
2023-04-23T14:58:41.074Z,6.80
2023-04-23T15:13:41.163Z,1.20
2023-04-23T15:28:41.322Z,1.00
2023-04-23T15:43:41.343Z,1.00
2023-04-23T15:58:41.383Z,6.10
2023-04-23T16:13:41.611Z,8.90
2023-04-23T16:28:41.663Z,19.90
2023-04-23T16:43:41.657Z,94.70
2023-04-23T16:58:42.240Z,60.20
2023-04-23T17:13:42.306Z,59.80
2023-04-23T17:28:43.156Z,56.70
2023-04-23T17:43:43.223Z,30.40
2023-04-23T17:58:43.446Z,5.90
2023-04-23T18:13:44.459Z,6.40
2023-04-23T18:28:44.530Z,1.40
2023-04-23T18:43:44.679Z,1.80
2023-04-23T18:58:44.696Z,2.30
2023-04-23T19:13:45.123Z,2.50
2023-04-23T19:28:44.951Z,3.30
2023-04-23T19:43:45.036Z,3.60
2023-04-23T19:58:45.179Z,3.50
2023-04-23T20:13:45.759Z,4.20
2023-04-23T20:28:45.837Z,4.20
2023-04-23T20:43:46.087Z,4.60
2023-04-23T20:58:46.082Z,4.60
2023-04-23T21:13:46.309Z,4.70
2023-04-23T21:28:46.431Z,4.50
2023-04-23T21:43:46.636Z,5.30
2023-04-23T21:58:46.632Z,5.80
2023-04-23T22:13:46.595Z,5.80
2023-04-23T22:28:46.861Z,6.80
2023-04-23T22:43:46.777Z,6.70
2023-04-23T22:58:47.203Z,7.10
2023-04-23T23:13:47.118Z,6.70
2023-04-23T23:28:47.585Z,6.00
2023-04-23T23:43:47.721Z,5.70
2023-04-23T23:58:48.205Z,5.50
